Time;durP1;ratioP1;P1;durP2;ratioP2;P2;SDS_P1;SDS_P2;PMS_P1;PMS_P2;Temp;Humidity;BMP_temperature;BMP_pressure;BME280_temperature;BME280_humidity;BME280_pressure;Samples;Min_cycle;Max_cycle;Signal;HPM_P1;HPM_P2
2022/01/15 00:00:15;;;;;;;;;95.67;85.33;;;;;5.87;65.78;102231.31;5056598;28;45423;-61
2022/01/15 00:02:40;;;;;;;;;96.67;81.00;;;;;5.86;65.96;102229.56;5056002;28;45421;-61
2022/01/15 00:05:06;;;;;;;;;95.33;80.00;;;;;5.86;65.87;102221.72;5056228;28;46050;-61
2022/01/15 00:07:31;;;;;;;;;96.25;79.50;;;;;5.86;65.80;102223.47;5055472;28;45501;-61
2022/01/15 00:09:56;;;;;;;;;94.75;77.50;;;;;5.88;65.76;102220.00;5056141;28;45336;-61
2022/01/15 00:12:22;;;;;;;;;91.00;74.75;;;;;5.89;65.73;102228.72;5056070;28;45453;-61
2022/01/15 00:14:48;;;;;;;;;96.50;81.75;;;;;5.88;65.48;102224.34;5055915;28;46013;-62
2022/01/15 00:17:18;;;;;;;;;95.50;80.75;;;;;5.87;65.97;102215.63;5055430;28;45494;-61
2022/01/15 00:19:43;;;;;;;;;90.50;72.25;;;;;5.89;65.72;102229.59;5055854;28;45423;-61
2022/01/15 00:22:15;;;;;;;;;90.00;74.50;;;;;5.91;65.79;102226.97;5055113;28;45572;-61
2022/01/15 00:24:42;;;;;;;;;79.25;62.00;;;;;5.89;66.00;102213.91;5055564;28;46372;-61
2022/01/15 00:27:08;;;;;;;;;89.75;72.50;;;;;5.89;65.73;102221.75;5055747;28;45444;-61
2022/01/15 00:29:34;;;;;;;;;92.25;70.25;;;;;5.85;65.80;102212.13;5055529;28;45409;-61
2022/01/15 00:32:00;;;;;;;;;89.25;70.00;;;;;5.88;65.99;102214.75;5055447;28;45690;-61
2022/01/15 00:34:26;;;;;;;;;93.00;70.25;;;;;5.89;65.96;102211.31;5055645;28;45510;-62
2022/01/15 00:36:52;;;;;;;;;91.75;68.75;;;;;5.91;66.01;102204.38;5055537;28;45431;-61
2022/01/15 00:39:18;;;;;;;;;90.00;72.50;;;;;5.92;65.95;102210.47;5055545;28;45436;-63
2022/01/15 00:41:43;;;;;;;;;86.50;69.75;;;;;5.93;65.95;102210.50;5037196;28;45643;-61
2022/01/15 00:44:09;;;;;;;;;80.50;65.00;;;;;5.94;65.94;102203.56;5055136;28;45347;-62
2022/01/15 00:46:34;;;;;;;;;85.00;69.75;;;;;5.92;65.79;102200.91;5055491;28;45451;-61
2022/01/15 00:48:59;;;;;;;;;88.25;71.00;;;;;5.86;65.99;102200.84;5055514;28;45479;-61
2022/01/15 00:51:25;;;;;;;;;89.75;68.75;;;;;5.86;66.07;102193.00;5055082;28;45553;-61
2022/01/15 00:53:50;;;;;;;;;88.25;71.75;;;;;5.87;66.29;102201.72;5054621;28;45419;-61
2022/01/15 00:56:16;;;;;;;;;92.25;76.50;;;;;5.84;66.06;102197.34;5055257;28;45400;-61
2022/01/15 00:58:41;;;;;;;;;88.50;74.50;;;;;5.85;65.94;102193.84;5037233;28;45383;-61
2022/01/15 01:01:07;;;;;;;;;92.75;75.75;;;;;5.85;66.10;102198.19;5055315;28;45294;-62
2022/01/15 01:03:32;;;;;;;;;95.00;79.25;;;;;5.87;65.52;102191.28;5054486;28;46088;-61
2022/01/15 01:05:57;;;;;;;;;94.25;76.00;;;;;5.86;65.60;102181.69;5055473;28;45444;-61
2022/01/15 01:08:23;;;;;;;;;91.75;76.25;;;;;5.85;65.92;102183.41;5055520;28;45400;-61
2022/01/15 01:10:52;;;;;;;;;92.25;79.00;;;;;5.87;65.76;102175.59;5053932;28;45696;-62
2022/01/15 01:23:43;;;;;;;;;100.33;89.67;;;;;5.81;65.42;102160.75;5054905;28;45392;-61
2022/01/15 01:26:22;;;;;;;;;96.33;86.33;;;;;5.78;65.47;102163.34;5054991;28;45362;-61
2022/01/15 01:28:56;;;;;;;;;98.33;83.67;;;;;5.79;65.25;102157.25;5054402;28;45395;-61
2022/01/15 01:31:29;;;;;;;;;103.00;96.67;;;;;5.78;65.11;102155.50;5055022;28;45554;-61
2022/01/15 01:34:04;;;;;;;;;103.00;94.33;;;;;5.79;65.20;102156.38;5057423;28;45528;-61
2022/01/15 01:37:11;;;;;;;;;100.00;93.33;;;;;5.76;65.20;102152.00;5039307;28;45534;-61
2022/01/15 01:39:24;;;;;;;;;104.67;94.00;;;;;5.74;65.30;102159.81;5052427;28;45555;-61
2022/01/15 01:42:07;;;;;;;;;102.00;92.00;;;;;5.75;65.22;102160.72;5058583;28;45516;-62
2022/01/15 01:44:39;;;;;;;;;98.00;85.67;;;;;5.73;65.10;102158.06;5056378;28;46297;-61
2022/01/15 01:47:10;;;;;;;;;100.33;91.33;;;;;5.69;65.29;102164.09;5019953;28;45468;-61
2022/01/15 01:49:36;;;;;;;;;103.67;92.67;;;;;5.66;65.12;102165.81;5038450;28;45419;-61
2022/01/15 01:52:01;;;;;;;;;100.67;90.67;;;;;5.64;65.36;102162.31;5050819;28;45488;-61
2022/01/15 01:54:27;;;;;;;;;95.00;81.67;;;;;5.65;65.40;102153.63;5058230;28;46326;-62
2022/01/15 01:56:52;;;;;;;;;99.33;86.67;;;;;5.64;65.43;102150.16;5058238;28;45467;-61
2022/01/15 01:59:18;;;;;;;;;95.33;83.00;;;;;5.57;65.43;102144.84;5058240;28;45478;-61
2022/01/15 02:01:44;;;;;;;;;100.33;88.33;;;;;5.58;65.45;102144.00;5058387;28;45499;-61
2022/01/15 02:04:09;;;;;;;;;103.67;90.00;;;;;5.59;65.71;102130.06;5058161;28;45829;-61
2022/01/15 02:06:36;;;;;;;;;100.00;85.33;;;;;5.60;65.50;102124.00;5057910;28;45394;-61
2022/01/15 02:09:05;;;;;;;;;96.67;83.67;;;;;5.61;65.36;102130.97;5057876;28;45435;-61
2022/01/15 02:11:30;;;;;;;;;101.33;85.33;;;;;5.57;65.33;102129.19;5058271;28;45475;-61
2022/01/15 02:13:55;;;;;;;;;96.33;82.67;;;;;5.48;65.58;102130.84;5057863;28;45504;-61
2022/01/15 02:16:21;;;;;;;;;97.33;84.00;;;;;5.49;65.52;102124.78;5057684;28;45435;-61
2022/01/15 02:18:52;;;;;;;;;96.00;81.00;;;;;5.49;65.86;102123.91;5058090;28;45431;-61
2022/01/15 02:23:50;;;;;;;;;95.33;83.33;;;;;5.45;65.61;102122.97;5058095;28;45485;-61
2022/01/15 02:26:25;;;;;;;;;96.00;83.67;;;;;5.41;66.10;102117.72;5057844;28;45527;-61
2022/01/15 02:28:57;;;;;;;;;100.00;90.00;;;;;5.43;66.07;102124.72;5057750;28;45688;-61
2022/01/15 02:31:24;;;;;;;;;98.67;85.33;;;;;5.45;65.95;102125.59;5039332;28;45425;-61
2022/01/15 02:33:51;;;;;;;;;101.67;86.67;;;;;5.42;65.85;102116.84;5038913;28;48237;-62
2022/01/15 02:36:26;;;;;;;;;100.33;87.00;;;;;5.43;65.55;102111.66;5057736;28;45472;-61
2022/01/15 02:38:52;;;;;;;;;99.67;88.33;;;;;5.43;65.74;102110.81;5057724;28;45487;-61
2022/01/15 02:41:35;;;;;;;;;96.33;80.67;;;;;5.44;66.20;102116.00;5056871;28;45531;-61
2022/01/15 02:44:03;;;;;;;;;96.33;84.67;;;;;5.42;66.00;102109.03;5057195;28;45461;-61
2022/01/15 02:49:00;;;;;;;;;96.67;83.00;;;;;5.43;65.91;102106.44;5057981;28;45447;-61
2022/01/15 02:51:28;;;;;;;;;103.00;88.00;;;;;5.48;65.81;102109.09;5057688;28;45408;-60
2022/01/15 02:53:55;;;;;;;;;96.00;81.33;;;;;5.42;65.66;102099.47;5056595;28;45462;-61
2022/01/15 02:56:41;;;;;;;;;100.67;87.67;;;;;5.42;65.75;102103.81;5057482;28;45422;-61
2022/01/15 02:59:10;;;;;;;;;98.67;84.33;;;;;5.39;65.95;102090.75;5057419;28;45356;-61
2022/01/15 03:01:35;;;;;;;;;94.33;80.33;;;;;5.39;66.30;102096.81;5057500;28;45336;-61
2022/01/15 03:04:02;;;;;;;;;96.67;81.67;;;;;5.37;65.71;102085.50;5056887;28;45899;-60
2022/01/15 03:06:28;;;;;;;;;95.00;80.67;;;;;5.36;65.75;102081.16;5057253;28;45436;-61
2022/01/15 03:08:53;;;;;;;;;95.67;82.33;;;;;5.38;65.88;102081.19;5057625;28;45471;-61
2022/01/15 03:11:21;;;;;;;;;92.33;76.33;;;;;5.37;65.87;102079.41;5057360;28;45527;-61
2022/01/15 03:13:46;;;;;;;;;100.00;88.33;;;;;5.38;65.70;102083.78;5056978;28;45454;-61
2022/01/15 03:16:16;;;;;;;;;95.00;81.67;;;;;5.36;65.54;102081.16;5038414;28;45817;-61
2022/01/15 03:18:43;;;;;;;;;99.00;82.33;;;;;5.37;65.57;102082.88;5055099;28;45494;-61
2022/01/15 03:21:08;;;;;;;;;97.67;82.67;;;;;5.32;65.90;102079.38;5056959;28;45367;-61
2022/01/15 03:23:34;;;;;;;;;95.67;79.00;;;;;5.34;65.83;102080.25;5056471;28;46098;-61
2022/01/15 03:25:59;;;;;;;;;94.67;79.00;;;;;5.34;65.81;102077.66;5056502;28;45487;-60
2022/01/15 03:28:25;;;;;;;;;99.33;87.67;;;;;5.34;66.01;102082.00;5056982;28;45464;-61
2022/01/15 03:30:51;;;;;;;;;100.67;86.00;;;;;5.35;65.89;102076.81;5057253;28;45356;-61
2022/01/15 03:33:16;;;;;;;;;96.67;83.67;;;;;5.34;65.73;102067.22;5056755;28;46384;-61
2022/01/15 03:35:41;;;;;;;;;96.00;82.67;;;;;5.31;65.67;102068.03;5056596;28;45527;-61
2022/01/15 03:38:07;;;;;;;;;101.33;87.00;;;;;5.34;66.46;102059.38;5038115;28;45969;-61
2022/01/15 03:40:34;;;;;;;;;98.00;82.00;;;;;5.34;66.02;102056.78;5056732;28;45653;-61
2022/01/15 03:42:59;;;;;;;;;95.00;80.33;;;;;5.35;66.12;102049.81;5056897;28;45912;-60
2022/01/15 03:45:25;;;;;;;;;99.67;80.00;;;;;5.37;65.76;102054.19;5057007;28;45448;-61
2022/01/15 03:47:51;;;;;;;;;97.00;80.67;;;;;5.34;65.93;102055.91;5056514;28;45499;-60
2022/01/15 03:50:18;;;;;;;;;99.00;86.67;;;;;5.28;66.38;102047.16;5056498;28;45573;-61
2022/01/15 03:52:44;;;;;;;;;99.33;87.67;;;;;5.26;66.36;102041.03;5056540;28;45379;-61
2022/01/15 03:55:11;;;;;;;;;98.33;83.67;;;;;5.34;66.01;102033.28;5055965;28;45401;-61
2022/01/15 03:57:37;;;;;;;;;99.33;84.67;;;;;5.29;66.02;102025.44;5055616;28;45537;-61
2022/01/15 04:00:07;;;;;;;;;96.33;81.00;;;;;5.29;65.80;102034.97;5056286;28;45494;-60
2022/01/15 04:02:33;;;;;;;;;101.00;89.67;;;;;5.29;66.06;102025.44;5056183;28;45473;-65
2022/01/15 04:04:58;;;;;;;;;100.67;90.67;;;;;5.28;66.46;102026.28;5056440;28;45450;-61
2022/01/15 04:07:23;;;;;;;;;103.67;95.00;;;;;5.28;66.75;102022.81;5056606;28;45336;-61
2022/01/15 04:09:49;;;;;;;;;100.67;88.33;;;;;5.28;66.52;102020.19;5056104;28;45625;-60
2022/01/15 04:12:14;;;;;;;;;102.00;90.67;;;;;5.31;66.48;102017.63;5056188;28;46127;-61
2022/01/15 04:14:39;;;;;;;;;103.67;93.00;;;;;5.34;66.17;102020.25;5055976;28;45506;-60
2022/01/15 04:17:06;;;;;;;;;99.00;85.33;;;;;5.34;66.19;102019.38;5056553;28;45562;-60
2022/01/15 04:19:33;;;;;;;;;103.00;95.00;;;;;5.29;66.03;102011.50;5056459;28;45497;-60
2022/01/15 04:21:58;;;;;;;;;104.33;94.67;;;;;5.29;66.24;102011.50;5055680;28;45446;-61
2022/01/15 04:24:24;;;;;;;;;104.33;93.33;;;;;5.31;66.54;102018.47;5055909;28;45399;-61
2022/01/15 04:26:49;;;;;;;;;105.67;91.00;;;;;5.33;66.26;102013.28;5056137;28;45419;-61
2022/01/15 04:29:15;;;;;;;;;105.00;94.00;;;;;5.33;66.34;102013.28;5038028;28;45334;-61
2022/01/15 04:31:48;;;;;;;;;101.33;91.33;;;;;5.31;66.09;102008.06;5055290;28;45509;-61
2022/01/15 04:34:27;;;;;;;;;102.33;93.00;;;;;5.28;65.91;102004.56;5054545;28;45395;-61
2022/01/15 04:36:59;;;;;;;;;105.33;99.00;;;;;5.29;66.36;101998.47;5056162;28;45396;-61
2022/01/15 04:39:25;;;;;;;;;106.67;99.00;;;;;5.29;66.31;101998.47;5055841;28;45341;-60
2022/01/15 04:41:50;;;;;;;;;111.33;102.00;;;;;5.30;66.46;102000.22;5055453;28;45389;-61
2022/01/15 04:44:15;;;;;;;;;105.67;95.00;;;;;5.26;65.95;101998.44;5055905;28;45343;-61
2022/01/15 04:46:41;;;;;;;;;108.67;104.33;;;;;5.27;66.04;101993.25;5056194;28;45438;-61
2022/01/15 04:49:06;;;;;;;;;117.33;104.33;;;;;5.28;66.19;101991.50;5055947;28;45351;-61
2022/01/15 04:51:33;;;;;;;;;116.67;106.33;;;;;5.28;65.76;101996.72;5054962;28;45554;-61
2022/01/15 04:53:58;;;;;;;;;117.33;109.67;;;;;5.23;66.19;101994.06;5055508;28;45463;-60
2022/01/15 04:56:23;;;;;;;;;111.33;105.67;;;;;5.24;66.03;101992.34;5055694;28;45427;-61
2022/01/15 04:58:49;;;;;;;;;113.67;108.33;;;;;5.18;66.07;101995.75;5055989;28;45427;-61
2022/01/15 05:01:16;;;;;;;;;115.67;108.67;;;;;5.17;65.80;101988.81;5055433;28;45475;-60
2022/01/15 05:03:41;;;;;;;;;113.67;106.33;;;;;5.17;66.14;101987.94;5037035;28;45662;-61
2022/01/15 05:06:06;;;;;;;;;108.33;101.67;;;;;5.11;66.12;101998.31;5055635;28;45432;-61
2022/01/15 05:08:32;;;;;;;;;116.00;106.67;;;;;5.10;66.30;101987.00;5055527;28;45477;-61
2022/01/15 05:11:00;;;;;;;;;121.00;106.33;;;;;5.13;66.25;101992.25;5055493;28;45430;-61
2022/01/15 05:13:29;;;;;;;;;105.33;97.33;;;;;5.15;66.22;101987.03;5055790;28;45460;-61
2022/01/15 05:15:54;;;;;;;;;115.33;107.33;;;;;5.15;66.09;101984.44;5054984;28;45359;-61
2022/01/15 05:18:20;;;;;;;;;108.33;102.33;;;;;5.13;66.08;101983.53;5055294;28;45573;-60
2022/01/15 05:20:45;;;;;;;;;111.00;106.00;;;;;5.12;66.10;101979.19;5055324;28;46204;-61
2022/01/15 05:23:12;;;;;;;;;107.67;105.33;;;;;5.13;66.33;101976.63;5055414;28;45435;-61
2022/01/15 05:25:38;;;;;;;;;110.33;99.33;;;;;5.10;66.02;101981.78;5055424;28;45396;-60
2022/01/15 05:28:04;;;;;;;;;108.67;104.00;;;;;5.07;66.02;101985.22;5054869;28;45548;-61
2022/01/15 05:30:31;;;;;;;;;108.00;97.00;;;;;5.03;65.76;101982.59;5055070;28;46070;-61
2022/01/15 05:32:57;;;;;;;;;102.67;91.67;;;;;4.98;66.46;101986.88;5054468;28;45451;-61
2022/01/15 05:35:26;;;;;;;;;99.67;86.33;;;;;5.00;66.53;101970.41;5055136;28;45429;-61
2022/01/15 05:37:52;;;;;;;;;97.00;84.00;;;;;5.07;66.52;101972.19;5054877;28;45349;-61
2022/01/15 05:40:18;;;;;;;;;91.67;75.00;;;;;5.07;65.98;101972.19;5054764;28;46195;-61
2022/01/15 05:42:44;;;;;;;;;99.00;83.33;;;;;5.07;65.99;101976.53;5055413;28;45521;-61
2022/01/15 05:45:10;;;;;;;;;93.00;77.75;;;;;5.11;66.50;101982.66;5037272;28;45437;-62
2022/01/15 05:47:35;;;;;;;;;93.25;72.00;;;;;5.08;66.43;101983.50;5055138;28;45550;-61
2022/01/15 05:50:00;;;;;;;;;89.00;72.67;;;;;5.11;65.95;101982.66;5054348;28;45479;-61
2022/01/15 05:52:26;;;;;;;;;93.00;75.00;;;;;5.09;66.02;101983.50;5053326;28;51964;-61
2022/01/15 05:54:51;;;;;;;;;92.00;75.50;;;;;5.11;65.56;101987.88;5055165;28;45986;-61
2022/01/15 05:57:17;;;;;;;;;93.00;72.25;;;;;5.13;65.55;101994.88;5054966;28;45523;-61
2022/01/15 05:59:42;;;;;;;;;92.00;71.25;;;;;5.15;65.47;101994.88;5054179;28;46324;-60
2022/01/15 06:02:08;;;;;;;;;83.50;67.00;;;;;5.11;65.44;101990.50;5054598;28;45448;-61
2022/01/15 06:04:33;;;;;;;;;91.75;72.00;;;;;5.07;65.59;101993.03;5035989;28;46319;-61
2022/01/15 06:06:58;;;;;;;;;87.75;68.25;;;;;5.03;65.25;101988.69;5054964;28;45355;-61
2022/01/15 06:09:24;;;;;;;;;81.00;66.50;;;;;5.00;64.92;101993.88;5054770;28;45433;-61
2022/01/15 06:11:50;;;;;;;;;83.50;68.75;;;;;4.98;65.43;101998.19;5054156;28;47468;-61
2022/01/15 06:14:15;;;;;;;;;83.75;68.50;;;;;4.94;65.75;101991.16;5054386;28;45395;-61
2022/01/15 06:16:41;;;;;;;;;89.75;71.25;;;;;4.91;65.41;101991.16;5054725;28;45417;-61
2022/01/15 06:19:06;;;;;;;;;91.75;74.25;;;;;4.92;65.16;101990.31;5055359;28;46114;-60
2022/01/15 06:21:31;;;;;;;;;89.75;70.00;;;;;4.89;65.57;101992.88;5057589;28;45411;-61
2022/01/15 06:23:57;;;;;;;;;86.25;68.50;;;;;4.86;65.38;101992.81;5057762;28;45443;-60
2022/01/15 06:26:22;;;;;;;;;89.25;68.25;;;;;4.84;65.73;101985.00;5057941;28;45609;-61
2022/01/15 06:28:48;;;;;;;;;88.75;72.00;;;;;4.80;65.34;101984.94;5057902;28;45901;-61
2022/01/15 06:31:15;;;;;;;;;89.75;69.00;;;;;4.78;66.27;101987.56;5057806;28;45613;-61
2022/01/15 06:33:40;;;;;;;;;87.00;69.75;;;;;4.81;66.17;101981.50;5057244;28;45432;-61
2022/01/15 06:36:06;;;;;;;;;88.50;70.75;;;;;4.84;66.01;101987.63;5057460;28;45537;-61
2022/01/15 06:38:31;;;;;;;;;85.75;68.00;;;;;4.82;65.83;101976.28;5057655;28;45503;-61
2022/01/15 06:40:56;;;;;;;;;87.75;68.50;;;;;4.85;65.39;101972.84;5057353;28;45336;-60
2022/01/15 06:43:22;;;;;;;;;89.25;69.50;;;;;4.81;66.09;101978.91;5057203;28;47504;-61
2022/01/15 06:45:47;;;;;;;;;88.75;71.75;;;;;4.77;65.87;101970.16;5039764;28;45446;-61
2022/01/15 06:48:12;;;;;;;;;93.00;76.67;;;;;4.81;65.92;101978.91;5022397;28;45461;-61
2022/01/15 06:50:38;;;;;;;;;86.50;69.25;;;;;4.81;66.13;101976.28;5057264;28;45324;-60
2022/01/15 06:53:04;;;;;;;;;99.33;83.00;;;;;4.81;65.79;101982.38;5057354;28;45546;-60
2022/01/15 06:55:31;;;;;;;;;96.67;85.33;;;;;4.82;66.02;101973.69;5038905;28;45560;-60
2022/01/15 06:57:56;;;;;;;;;99.00;81.00;;;;;4.84;66.16;101974.59;5057544;28;46176;-61
2022/01/15 07:00:24;;;;;;;;;97.33;85.00;;;;;4.87;65.92;101963.31;5056947;28;45460;-60
2022/01/15 07:02:50;;;;;;;;;98.33;84.00;;;;;4.86;65.93;101966.75;5057401;28;45418;-60
2022/01/15 07:05:15;;;;;;;;;96.33;76.00;;;;;4.91;65.59;101957.25;5056443;28;45451;-60
2022/01/15 07:07:44;;;;;;;;;97.00;81.00;;;;;4.94;65.87;101956.41;5056922;28;46012;-60
2022/01/15 07:10:10;;;;;;;;;96.00;78.00;;;;;4.89;65.43;101951.19;5057160;28;45487;-60
2022/01/15 07:12:36;;;;;;;;;93.67;80.33;;;;;4.82;65.74;101945.00;5057361;28;45433;-60
2022/01/15 07:15:02;;;;;;;;;104.67;94.67;;;;;4.78;65.88;101935.44;5057026;28;45480;-60
2022/01/15 07:17:27;;;;;;;;;102.33;91.67;;;;;4.81;66.03;101942.41;5056448;28;46364;-60
2022/01/15 07:19:52;;;;;;;;;109.00;100.67;;;;;4.84;65.84;101945.03;5057147;28;45464;-61
2022/01/15 07:22:18;;;;;;;;;104.33;97.67;;;;;4.84;66.21;101956.34;5056308;28;45977;-60
2022/01/15 07:24:43;;;;;;;;;114.00;102.00;;;;;4.85;66.13;101949.38;5056982;28;45406;-61
2022/01/15 07:27:09;;;;;;;;;107.67;98.00;;;;;4.87;65.83;101943.34;5056439;28;46193;-61
2022/01/15 07:29:37;;;;;;;;;113.33;102.33;;;;;4.88;66.24;101942.47;5057045;28;45500;-61
2022/01/15 07:32:03;;;;;;;;;109.00;103.67;;;;;4.91;65.64;101945.97;5038703;28;45427;-61
2022/01/15 07:34:29;;;;;;;;;110.33;108.00;;;;;4.94;65.75;101953.81;5056891;28;45502;-60
2022/01/15 07:36:57;;;;;;;;;112.67;102.33;;;;;4.93;65.73;101945.13;5056871;28;45416;-61
2022/01/15 07:39:23;;;;;;;;;107.00;102.00;;;;;4.91;65.70;101943.34;5055349;28;45467;-61
2022/01/15 07:41:49;;;;;;;;;104.67;96.33;;;;;4.92;65.88;101930.34;5056973;28;45431;-59
2022/01/15 07:44:14;;;;;;;;;103.33;95.33;;;;;4.91;66.10;101941.63;5055871;28;45605;-60
2022/01/15 07:46:40;;;;;;;;;106.33;93.33;;;;;4.92;66.02;101939.91;5056724;28;46133;-60
2022/01/15 07:49:05;;;;;;;;;103.67;96.00;;;;;4.85;66.23;101937.22;5037865;28;45404;-60
2022/01/15 07:51:30;;;;;;;;;107.67;101.00;;;;;4.85;65.98;101945.03;5056391;28;45502;-61
2022/01/15 07:53:56;;;;;;;;;106.67;96.67;;;;;4.87;66.42;101939.84;5056787;28;45419;-60
2022/01/15 07:56:22;;;;;;;;;105.67;95.67;;;;;4.89;66.17;101940.75;5057822;28;45520;-59
2022/01/15 07:58:47;;;;;;;;;103.00;91.00;;;;;4.88;66.29;101938.97;5076668;28;45460;-59
2022/01/15 08:01:13;;;;;;;;;110.33;95.33;;;;;4.87;66.45;101940.72;5067173;28;45468;-58
2022/01/15 08:03:39;;;;;;;;;105.33;96.00;;;;;4.89;66.13;101940.75;5055508;28;45388;-59
2022/01/15 08:06:04;;;;;;;;;103.67;91.67;;;;;4.92;65.66;101942.50;5037286;28;45530;-59
2022/01/15 08:08:30;;;;;;;;;103.67;92.00;;;;;4.93;65.88;101936.44;5050295;28;45412;-58
2022/01/15 08:10:55;;;;;;;;;106.67;100.67;;;;;4.94;66.13;101936.44;5048402;28;45553;-58
2022/01/15 08:13:20;;;;;;;;;105.33;94.67;;;;;4.92;65.73;101935.56;5055701;28;45507;-57
2022/01/15 08:15:46;;;;;;;;;104.00;95.33;;;;;4.86;65.99;101925.06;5036768;28;56559;-61
2022/01/15 08:18:11;;;;;;;;;97.67;82.00;;;;;4.84;65.88;101930.28;5056081;28;45345;-55
2022/01/15 08:20:36;;;;;;;;;98.00;82.00;;;;;4.80;65.96;101925.88;5056265;28;45414;-55
2022/01/15 08:23:02;;;;;;;;;103.67;94.00;;;;;4.81;66.54;101931.97;5055960;28;45486;-57
2022/01/15 08:25:27;;;;;;;;;104.33;95.33;;;;;4.83;65.86;101932.84;5054802;28;45407;-57
2022/01/15 08:27:53;;;;;;;;;102.00;90.33;;;;;4.80;65.79;101935.44;5054816;28;45487;-57
2022/01/15 08:30:19;;;;;;;;;103.00;90.33;;;;;4.86;65.99;101931.16;5055308;28;45421;-65
2022/01/15 08:32:45;;;;;;;;;106.00;99.33;;;;;4.92;65.62;101924.28;5054474;28;45571;-64
2022/01/15 08:35:11;;;;;;;;;100.33;88.67;;;;;5.00;65.40;101931.28;5055461;28;45440;-61
2022/01/15 08:37:40;;;;;;;;;104.33;92.33;;;;;5.02;65.20;101926.97;5055139;28;45530;-61
2022/01/15 08:40:11;;;;;;;;;103.00;89.00;;;;;5.05;65.36;101926.09;5062948;28;45535;-62
2022/01/15 08:42:37;;;;;;;;;106.67;98.33;;;;;5.09;65.18;101933.97;5075677;28;45470;-60
2022/01/15 08:45:05;;;;;;;;;102.00;85.67;;;;;5.13;64.94;101934.88;5075231;28;45378;-61
2022/01/15 08:47:30;;;;;;;;;104.00;97.33;;;;;5.18;65.10;101920.13;5072798;28;45515;-60
2022/01/15 08:49:56;;;;;;;;;103.67;95.67;;;;;5.21;64.59;101927.09;5061584;28;45355;-60
2022/01/15 08:52:22;;;;;;;;;106.67;98.67;;;;;5.21;64.58;101925.41;5076024;28;45433;-64
2022/01/15 08:54:47;;;;;;;;;111.33;102.00;;;;;5.19;64.99;101929.72;5062539;28;45443;-64
2022/01/15 08:57:12;;;;;;;;;103.00;94.67;;;;;5.19;64.91;101945.38;5069085;28;45450;-64
2022/01/15 08:59:38;;;;;;;;;104.33;97.67;;;;;5.22;65.45;101941.91;5074872;28;45460;-60
2022/01/15 09:02:04;;;;;;;;;97.00;86.33;;;;;5.25;64.75;101952.38;5055645;28;45434;-65
2022/01/15 09:04:29;;;;;;;;;105.67;99.33;;;;;5.28;64.47;101945.44;5037034;28;46041;-61
2022/01/15 09:06:55;;;;;;;;;102.00;91.67;;;;;5.32;64.77;101952.44;5067135;28;45450;-61
2022/01/15 09:09:20;;;;;;;;;99.33;87.67;;;;;5.35;64.59;101942.84;5066598;28;45434;-61
2022/01/15 09:11:46;;;;;;;;;101.00;90.00;;;;;5.36;64.58;101949.84;5055250;28;45528;-63
2022/01/15 09:14:12;;;;;;;;;100.33;89.00;;;;;5.38;64.49;101946.38;5055526;28;46106;-61
2022/01/15 09:16:38;;;;;;;;;100.33;89.00;;;;;5.37;64.52;101949.84;5055110;28;45380;-63
2022/01/15 09:19:04;;;;;;;;;105.67;95.33;;;;;5.41;64.48;101948.16;5055002;28;45376;-60
2022/01/15 09:21:30;;;;;;;;;101.33;91.67;;;;;5.44;64.41;101948.16;5055030;28;45599;-63
2022/01/15 09:23:55;;;;;;;;;100.00;88.00;;;;;5.47;64.44;101940.34;5055311;28;45444;-62
2022/01/15 09:26:45;;;;;;;;;101.67;92.67;;;;;5.51;64.34;101944.75;5054941;28;45418;-61
2022/01/15 09:31:54;;;;;;;;;99.00;87.67;;;;;5.57;64.17;101934.34;5055148;28;45521;-61
2022/01/15 09:34:19;;;;;;;;;101.33;89.67;;;;;5.63;64.22;101942.22;5054963;28;46323;-61
2022/01/15 09:36:45;;;;;;;;;104.00;92.33;;;;;5.63;64.06;101943.94;5055016;28;45507;-62
2022/01/15 09:39:10;;;;;;;;;100.00;90.67;;;;;5.65;64.13;101937.88;5054722;28;45424;-61
2022/01/15 09:41:43;;;;;;;;;100.00;90.67;;;;;5.71;64.13;101945.75;5055165;28;45499;-62
2022/01/15 09:44:09;;;;;;;;;101.33;90.00;;;;;5.75;64.43;101950.13;5073101;28;45481;-62
2022/01/15 09:46:36;;;;;;;;;99.33;87.67;;;;;5.79;63.96;101948.41;5075259;28;45531;-61
2022/01/15 09:49:02;;;;;;;;;100.67;90.00;;;;;5.85;63.96;101953.66;5068722;28;45392;-60
2022/01/15 09:51:29;;;;;;;;;102.00;89.00;;;;;5.83;64.00;101941.44;5054436;28;45432;-59
2022/01/15 09:53:54;;;;;;;;;108.00;97.33;;;;;5.85;64.01;101947.56;5055839;28;45516;-62
2022/01/15 09:56:20;;;;;;;;;99.33;91.33;;;;;5.89;63.94;101938.91;5058232;28;45517;-62
2022/01/15 09:58:46;;;;;;;;;100.67;92.33;;;;;5.95;63.88;101944.19;5058737;28;45549;-62
2022/01/15 10:01:11;;;;;;;;;106.33;94.67;;;;;5.94;64.03;101945.06;5058055;28;45573;-61
2022/01/15 10:03:36;;;;;;;;;102.33;95.00;;;;;5.96;64.02;101938.97;5058277;28;46052;-62
2022/01/15 10:06:05;;;;;;;;;104.00;98.67;;;;;6.00;63.96;101941.59;5058283;28;45416;-61
2022/01/15 10:08:31;;;;;;;;;104.00;94.33;;;;;6.01;64.04;101938.97;5039465;28;45545;-61
2022/01/15 10:10:58;;;;;;;;;108.00;100.00;;;;;6.05;63.47;101940.75;5046665;28;45583;-60
2022/01/15 10:13:30;;;;;;;;;107.67;100.00;;;;;6.07;63.71;101944.25;5061340;28;45936;-60
2022/01/15 10:16:10;;;;;;;;;114.67;101.33;;;;;6.10;63.42;101940.75;5058136;28;45415;-64
2022/01/15 10:18:44;;;;;;;;;108.00;101.33;;;;;6.13;63.79;101938.19;5058226;28;45519;-64
2022/01/15 10:21:26;;;;;;;;;105.33;96.33;;;;;6.19;63.79;101941.69;5058150;28;45369;-63
2022/01/15 10:23:57;;;;;;;;;111.00;100.33;;;;;6.23;63.50;101936.47;5057027;28;45366;-65
2022/01/15 10:26:28;;;;;;;;;120.33;108.00;;;;;6.27;63.33;101940.84;5057407;28;45507;-66
2022/01/15 10:29:06;;;;;;;;;115.33;108.67;;;;;6.30;63.22;101933.88;5056536;28;45471;-68
2022/01/15 10:31:37;;;;;;;;;117.00;106.00;;;;;6.33;62.87;101928.66;5057546;28;45514;-69
2022/01/15 10:34:24;;;;;;;;;120.67;108.33;;;;;6.37;63.46;101926.97;5057180;28;45561;-67
2022/01/15 10:36:50;;;;;;;;;111.67;106.67;;;;;6.41;63.32;101919.13;5057875;28;45516;-67
2022/01/15 10:39:18;;;;;;;;;117.00;105.67;;;;;6.45;63.28;101913.88;5057984;28;45515;-64
2022/01/15 10:41:44;;;;;;;;;126.67;115.67;;;;;6.48;63.56;101917.41;5055862;28;45522;-66
2022/01/15 10:44:33;;;;;;;;;125.33;116.33;;;;;6.53;62.90;101909.56;5056632;28;46020;-65
2022/01/15 10:47:02;;;;;;;;;114.33;106.67;;;;;6.56;62.90;101907.84;5057175;28;45461;-67
2022/01/15 10:49:27;;;;;;;;;112.00;108.33;;;;;6.59;63.00;101906.97;5057663;28;45426;-68
2022/01/15 10:52:18;;;;;;;;;126.00;113.33;;;;;6.62;62.49;101907.84;5057582;28;45390;-64
2022/01/15 10:55:05;;;;;;;;;119.67;112.67;;;;;6.60;62.99;101903.47;5057495;28;46427;-64
2022/01/15 10:57:34;;;;;;;;;107.33;103.00;;;;;6.59;62.90;101906.97;5056993;28;45496;-64
2022/01/15 11:00:08;;;;;;;;;116.67;111.67;;;;;6.57;63.32;101904.34;5057758;28;45486;-67
2022/01/15 11:02:35;;;;;;;;;120.33;114.33;;;;;6.58;62.76;101905.22;5057338;28;45478;-66
2022/01/15 11:05:02;;;;;;;;;115.00;107.00;;;;;6.58;62.83;101894.75;5056962;28;45449;-65
2022/01/15 11:07:27;;;;;;;;;114.00;109.00;;;;;6.69;62.59;101902.63;5056710;28;45418;-66
2022/01/15 11:09:53;;;;;;;;;133.00;122.67;;;;;6.68;62.56;101899.13;5057552;28;45437;-66
2022/01/15 11:12:24;;;;;;;;;124.33;121.67;;;;;6.72;62.48;101898.28;5057638;28;45423;-66
2022/01/15 11:14:49;;;;;;;;;130.00;125.33;;;;;6.72;63.30;101895.69;5057289;28;45410;-64
2022/01/15 11:17:15;;;;;;;;;138.00;123.33;;;;;6.71;62.81;101898.28;5056954;28;45552;-66
2022/01/15 11:19:45;;;;;;;;;125.00;119.33;;;;;6.73;63.19;101894.78;5056838;28;45388;-65
2022/01/15 11:22:11;;;;;;;;;131.67;120.33;;;;;6.70;63.11;101886.94;5039165;28;45527;-66
2022/01/15 11:24:37;;;;;;;;;128.33;119.33;;;;;6.72;62.80;101889.59;5056687;28;45546;-67
2022/01/15 11:27:04;;;;;;;;;118.67;110.00;;;;;6.72;62.59;101882.59;5056595;28;45400;-65
2022/01/15 11:29:30;;;;;;;;;112.33;107.00;;;;;6.76;62.50;101883.47;5056518;28;45502;-64